sensor_id;sensor_type;location;lat;lon;timestamp;pressure;altitude;pressure_sealevel;temperature;humidity
12247;BME280;6186;52.022;4.692;2024-02-26T00:00:21;100070.41;;;7.18;100.00
12247;BME280;6186;52.022;4.692;2024-02-26T00:02:47;100069.56;;;7.16;100.00
12247;BME280;6186;52.022;4.692;2024-02-26T00:05:12;100061.81;;;7.13;100.00
12247;BME280;6186;52.022;4.692;2024-02-26T00:07:37;100065.31;;;7.12;100.00
12247;BME280;6186;52.022;4.692;2024-02-26T00:10:02;100068.84;;;7.10;100.00
12247;BME280;6186;52.022;4.692;2024-02-26T00:12:28;100066.31;;;7.07;100.00
12247;BME280;6186;52.022;4.692;2024-02-26T00:14:53;100068.06;;;7.08;100.00
12247;BME280;6186;52.022;4.692;2024-02-26T00:17:18;100068.06;;;7.06;100.00
12247;BME280;6186;52.022;4.692;2024-02-26T00:19:43;100077.69;;;7.04;100.00
12247;BME280;6186;52.022;4.692;2024-02-26T00:22:08;100084.69;;;7.05;100.00
12247;BME280;6186;52.022;4.692;2024-02-26T00:24:34;100082.06;;;7.05;100.00
12247;BME280;6186;52.022;4.692;2024-02-26T00:26:59;100082.94;;;7.04;100.00
12247;BME280;6186;52.022;4.692;2024-02-26T00:29:24;100080.34;;;7.03;100.00
12247;BME280;6186;52.022;4.692;2024-02-26T00:31:50;100072.56;;;7.01;100.00
12247;BME280;6186;52.022;4.692;2024-02-26T00:34:15;100077.78;;;7.01;100.00
12247;BME280;6186;52.022;4.692;2024-02-26T00:36:40;100077.81;;;7.00;100.00
12247;BME280;6186;52.022;4.692;2024-02-26T00:39:05;100080.53;;;6.95;100.00
12247;BME280;6186;52.022;4.692;2024-02-26T00:41:30;100092.66;;;6.99;100.00
12247;BME280;6186;52.022;4.692;2024-02-26T00:43:56;100089.16;;;6.99;100.00
12247;BME280;6186;52.022;4.692;2024-02-26T00:46:21;100078.69;;;6.99;100.00
12247;BME280;6186;52.022;4.692;2024-02-26T00:48:46;100080.47;;;6.98;100.00
12247;BME280;6186;52.022;4.692;2024-02-26T00:51:11;100070.06;;;6.95;100.00
12247;BME280;6186;52.022;4.692;2024-02-26T00:53:37;100073.59;;;6.94;100.00
12247;BME280;6186;52.022;4.692;2024-02-26T00:56:02;100076.22;;;6.94;100.00
12247;BME280;6186;52.022;4.692;2024-02-26T00:58:27;100072.78;;;6.92;100.00
12247;BME280;6186;52.022;4.692;2024-02-26T01:00:53;100074.47;;;6.93;100.00
12247;BME280;6186;52.022;4.692;2024-02-26T01:03:19;100078.81;;;6.94;100.00
12247;BME280;6186;52.022;4.692;2024-02-26T01:05:45;100073.59;;;6.94;100.00
12247;BME280;6186;52.022;4.692;2024-02-26T01:08:10;100073.59;;;6.93;100.00
12247;BME280;6186;52.022;4.692;2024-02-26T01:10:35;100074.56;;;6.90;100.00
12247;BME280;6186;52.022;4.692;2024-02-26T01:13:01;100069.25;;;6.93;100.00
12247;BME280;6186;52.022;4.692;2024-02-26T01:15:26;100079.72;;;6.93;100.00
12247;BME280;6186;52.022;4.692;2024-02-26T01:17:52;100083.22;;;6.92;100.00
12247;BME280;6186;52.022;4.692;2024-02-26T01:20:18;100082.31;;;6.93;100.00
12247;BME280;6186;52.022;4.692;2024-02-26T01:22:43;100081.44;;;6.94;100.00
12247;BME280;6186;52.022;4.692;2024-02-26T01:25:09;100081.44;;;6.94;100.00
12247;BME280;6186;52.022;4.692;2024-02-26T01:27:34;100079.72;;;6.93;100.00
12247;BME280;6186;52.022;4.692;2024-02-26T01:29:59;100074.47;;;6.93;100.00
12247;BME280;6186;52.022;4.692;2024-02-26T01:32:24;100078.00;;;6.92;100.00
12247;BME280;6186;52.022;4.692;2024-02-26T01:34:50;100066.63;;;6.93;100.00
12247;BME280;6186;52.022;4.692;2024-02-26T01:37:15;100059.72;;;6.91;100.00
12247;BME280;6186;52.022;4.692;2024-02-26T01:39:40;100063.22;;;6.90;100.00
12247;BME280;6186;52.022;4.692;2024-02-26T01:42:05;100071.81;;;6.96;100.00
12247;BME280;6186;52.022;4.692;2024-02-26T01:44:31;100070.03;;;6.98;100.00
12247;BME280;6186;52.022;4.692;2024-02-26T01:46:57;100070.03;;;6.98;100.00
12247;BME280;6186;52.022;4.692;2024-02-26T01:49:22;100079.56;;;6.99;100.00
12247;BME280;6186;52.022;4.692;2024-02-26T01:51:47;100081.38;;;6.97;100.00
12247;BME280;6186;52.022;4.692;2024-02-26T01:54:13;100086.63;;;6.96;100.00
12247;BME280;6186;52.022;4.692;2024-02-26T01:56:40;100090.13;;;6.96;100.00
12247;BME280;6186;52.022;4.692;2024-02-26T01:59:06;100093.63;;;6.95;100.00
12247;BME280;6186;52.022;4.692;2024-02-26T02:01:33;100100.59;;;6.95;100.00
12247;BME280;6186;52.022;4.692;2024-02-26T02:03:59;100099.84;;;6.90;100.00
12247;BME280;6186;52.022;4.692;2024-02-26T02:06:25;100105.00;;;6.93;100.00
12247;BME280;6186;52.022;4.692;2024-02-26T02:08:51;100104.19;;;6.91;100.00
12247;BME280;6186;52.022;4.692;2024-02-26T02:11:16;100121.56;;;6.93;100.00
12247;BME280;6186;52.022;4.692;2024-02-26T02:13:42;100110.22;;;6.93;100.00
12247;BME280;6186;52.022;4.692;2024-02-26T02:16:07;100109.31;;;6.95;100.00
12247;BME280;6186;52.022;4.692;2024-02-26T02:18:33;100109.31;;;6.95;100.00
12247;BME280;6186;52.022;4.692;2024-02-26T02:21:01;100105.81;;;6.96;100.00
12247;BME280;6186;52.022;4.692;2024-02-26T02:23:27;100105.81;;;6.95;100.00
12247;BME280;6186;52.022;4.692;2024-02-26T02:25:52;100110.22;;;6.93;100.00
12247;BME280;6186;52.022;4.692;2024-02-26T02:28:18;100104.16;;;6.92;100.00
12247;BME280;6186;52.022;4.692;2024-02-26T02:30:44;100114.59;;;6.94;100.00
12247;BME280;6186;52.022;4.692;2024-02-26T02:33:09;100116.31;;;6.93;100.00
12247;BME280;6186;52.022;4.692;2024-02-26T02:35:35;100112.00;;;6.92;100.00
12247;BME280;6186;52.022;4.692;2024-02-26T02:38:00;100126.75;;;6.95;100.00
12247;BME280;6186;52.022;4.692;2024-02-26T02:40:25;100124.13;;;6.96;100.00
12247;BME280;6186;52.022;4.692;2024-02-26T02:42:50;100117.97;;;6.97;100.00
12247;BME280;6186;52.022;4.692;2024-02-26T02:45:16;100132.81;;;6.97;100.00
12247;BME280;6186;52.022;4.692;2024-02-26T02:47:41;100136.31;;;6.97;100.00
12247;BME280;6186;52.022;4.692;2024-02-26T02:50:06;100141.56;;;6.96;100.00
12247;BME280;6186;52.022;4.692;2024-02-26T02:52:32;100139.81;;;6.96;100.00
12247;BME280;6186;52.022;4.692;2024-02-26T02:54:58;100144.16;;;6.97;100.00
12247;BME280;6186;52.022;4.692;2024-02-26T02:57:23;100158.06;;;6.99;100.00
12247;BME280;6186;52.022;4.692;2024-02-26T02:59:48;100148.47;;;7.00;100.00
12247;BME280;6186;52.022;4.692;2024-02-26T03:02:13;100158.88;;;7.01;100.00
12247;BME280;6186;52.022;4.692;2024-02-26T03:04:39;100165.00;;;7.00;100.00
12247;BME280;6186;52.022;4.692;2024-02-26T03:07:04;100163.28;;;6.99;100.00
12247;BME280;6186;52.022;4.692;2024-02-26T03:09:29;100152.06;;;6.94;100.00
12247;BME280;6186;52.022;4.692;2024-02-26T03:11:54;100155.53;;;6.95;100.00
12247;BME280;6186;52.022;4.692;2024-02-26T03:14:20;100157.31;;;6.94;100.00
12247;BME280;6186;52.022;4.692;2024-02-26T03:16:45;100166.94;;;6.92;100.00
12247;BME280;6186;52.022;4.692;2024-02-26T03:19:10;100170.44;;;6.91;100.00
12247;BME280;6186;52.022;4.692;2024-02-26T03:21:35;100158.22;;;6.92;100.00
12247;BME280;6186;52.022;4.692;2024-02-26T03:24:01;100176.50;;;6.93;100.00
12247;BME280;6186;52.022;4.692;2024-02-26T03:26:26;100185.22;;;6.94;100.00
12247;BME280;6186;52.022;4.692;2024-02-26T03:28:51;100189.53;;;6.96;100.00
12247;BME280;6186;52.022;4.692;2024-02-26T03:31:16;100200.81;;;6.98;100.00
12247;BME280;6186;52.022;4.692;2024-02-26T03:33:42;100195.59;;;6.98;100.00
12247;BME280;6186;52.022;4.692;2024-02-26T03:36:07;100200.00;;;6.96;100.00
12247;BME280;6186;52.022;4.692;2024-02-26T03:38:32;100188.72;;;6.93;100.00
12247;BME280;6186;52.022;4.692;2024-02-26T03:40:58;100171.47;;;6.84;100.00
12247;BME280;6186;52.022;4.692;2024-02-26T03:43:23;100188.81;;;6.88;100.00
12247;BME280;6186;52.022;4.692;2024-02-26T03:45:48;100190.59;;;6.86;100.00
12247;BME280;6186;52.022;4.692;2024-02-26T03:48:13;100184.53;;;6.84;100.00
12247;BME280;6186;52.022;4.692;2024-02-26T03:50:39;100187.19;;;6.83;100.00
12247;BME280;6186;52.022;4.692;2024-02-26T03:53:04;100184.53;;;6.84;100.00
12247;BME280;6186;52.022;4.692;2024-02-26T03:55:29;100189.78;;;6.84;100.00
12247;BME280;6186;52.022;4.692;2024-02-26T03:57:55;100191.56;;;6.82;100.00
12247;BME280;6186;52.022;4.692;2024-02-26T04:00:20;100198.53;;;6.82;100.00
12247;BME280;6186;52.022;4.692;2024-02-26T04:02:49;100190.75;;;6.79;100.00
12247;BME280;6186;52.022;4.692;2024-02-26T04:05:14;100192.53;;;6.77;100.00
12247;BME280;6186;52.022;4.692;2024-02-26T04:07:40;100200.31;;;6.81;100.00
12247;BME280;6186;52.022;4.692;2024-02-26T04:10:09;100197.72;;;6.78;100.00
12247;BME280;6186;52.022;4.692;2024-02-26T04:12:35;100198.66;;;6.77;100.00
12247;BME280;6186;52.022;4.692;2024-02-26T04:15:00;100208.22;;;6.77;100.00
12247;BME280;6186;52.022;4.692;2024-02-26T04:17:25;100207.38;;;6.76;100.00
12247;BME280;6186;52.022;4.692;2024-02-26T04:19:50;100213.50;;;6.75;100.00
12247;BME280;6186;52.022;4.692;2024-02-26T04:22:16;100209.19;;;6.73;100.00
12247;BME280;6186;52.022;4.692;2024-02-26T04:24:41;100217.06;;;6.71;100.00
12247;BME280;6186;52.022;4.692;2024-02-26T04:27:06;100211.88;;;6.68;100.00
12247;BME280;6186;52.022;4.692;2024-02-26T04:29:31;100224.13;;;6.68;100.00
12247;BME280;6186;52.022;4.692;2024-02-26T04:31:57;100216.28;;;6.68;100.00
12247;BME280;6186;52.022;4.692;2024-02-26T04:34:22;100223.25;;;6.67;100.00
12247;BME280;6186;52.022;4.692;2024-02-26T04:36:47;100215.44;;;6.65;100.00
12247;BME280;6186;52.022;4.692;2024-02-26T04:39:12;100216.31;;;6.66;100.00
12247;BME280;6186;52.022;4.692;2024-02-26T04:41:37;100206.88;;;6.57;100.00
12247;BME280;6186;52.022;4.692;2024-02-26T04:44:03;100220.59;;;6.68;100.00
12247;BME280;6186;52.022;4.692;2024-02-26T04:46:28;100218.88;;;6.68;100.00
12247;BME280;6186;52.022;4.692;2024-02-26T04:48:53;100224.97;;;6.66;100.00
12247;BME280;6186;52.022;4.692;2024-02-26T04:51:19;100228.47;;;6.67;100.00
12247;BME280;6186;52.022;4.692;2024-02-26T04:53:44;100236.31;;;6.67;100.00
12247;BME280;6186;52.022;4.692;2024-02-26T04:56:09;100238.94;;;6.67;100.00
12247;BME280;6186;52.022;4.692;2024-02-26T04:58:35;100247.69;;;6.66;100.00
12247;BME280;6186;52.022;4.692;2024-02-26T05:01:00;100228.63;;;6.59;100.00
12247;BME280;6186;52.022;4.692;2024-02-26T05:03:25;100242.38;;;6.69;100.00
12247;BME280;6186;52.022;4.692;2024-02-26T05:05:50;100236.25;;;6.70;100.00
12247;BME280;6186;52.022;4.692;2024-02-26T05:08:15;100244.97;;;6.71;100.00
12247;BME280;6186;52.022;4.692;2024-02-26T05:10:41;100236.28;;;6.68;100.00
12247;BME280;6186;52.022;4.692;2024-02-26T05:13:09;100248.44;;;6.71;100.00
12247;BME280;6186;52.022;4.692;2024-02-26T05:15:35;100244.97;;;6.71;100.00
12247;BME280;6186;52.022;4.692;2024-02-26T05:18:00;100241.47;;;6.70;100.00
12247;BME280;6186;52.022;4.692;2024-02-26T05:20:26;100239.78;;;6.69;100.00
12247;BME280;6186;52.022;4.692;2024-02-26T05:22:51;100239.84;;;6.64;100.00
12247;BME280;6186;52.022;4.692;2024-02-26T05:25:16;100235.47;;;6.65;100.00
12247;BME280;6186;52.022;4.692;2024-02-26T05:27:43;100239.84;;;6.64;100.00
12247;BME280;6186;52.022;4.692;2024-02-26T05:30:09;100253.72;;;6.68;100.00
12247;BME280;6186;52.022;4.692;2024-02-26T05:32:34;100256.31;;;6.70;100.00
12247;BME280;6186;52.022;4.692;2024-02-26T05:34:59;100265.91;;;6.69;100.00
12247;BME280;6186;52.022;4.692;2024-02-26T05:37:24;100272.03;;;6.68;100.00
12247;BME280;6186;52.022;4.692;2024-02-26T05:39:50;100267.84;;;6.59;100.00
12247;BME280;6186;52.022;4.692;2024-02-26T05:42:15;100290.31;;;6.68;100.00
12247;BME280;6186;52.022;4.692;2024-02-26T05:44:40;100280.78;;;6.67;100.00
12247;BME280;6186;52.022;4.692;2024-02-26T05:47:05;100285.16;;;6.65;100.00
12247;BME280;6186;52.022;4.692;2024-02-26T05:49:30;100286.94;;;6.63;100.00
12247;BME280;6186;52.022;4.692;2024-02-26T05:51:56;100290.47;;;6.62;100.00
12247;BME280;6186;52.022;4.692;2024-02-26T05:54:21;100287.84;;;6.60;100.00
12247;BME280;6186;52.022;4.692;2024-02-26T05:56:46;100288.72;;;6.61;100.00
12247;BME280;6186;52.022;4.692;2024-02-26T05:59:11;100292.25;;;6.60;100.00
12247;BME280;6186;52.022;4.692;2024-02-26T06:01:37;100300.91;;;6.60;100.00
12247;BME280;6186;52.022;4.692;2024-02-26T06:04:02;100297.53;;;6.55;100.00
12247;BME280;6186;52.022;4.692;2024-02-26T06:06:27;100301.91;;;6.55;100.00
12247;BME280;6186;52.022;4.692;2024-02-26T06:08:52;100302.84;;;6.52;100.00
12247;BME280;6186;52.022;4.692;2024-02-26T06:11:18;100311.50;;;6.54;100.00
12247;BME280;6186;52.022;4.692;2024-02-26T06:13:43;100306.28;;;6.53;100.00
12247;BME280;6186;52.022;4.692;2024-02-26T06:16:08;100314.16;;;6.51;100.00
12247;BME280;6186;52.022;4.692;2024-02-26T06:18:33;100318.47;;;6.54;100.00
12247;BME280;6186;52.022;4.692;2024-02-26T06:20:59;100319.34;;;6.53;100.00
12247;BME280;6186;52.022;4.692;2024-02-26T06:23:24;100323.75;;;6.52;100.00
12247;BME280;6186;52.022;4.692;2024-02-26T06:25:49;100332.47;;;6.51;100.00
12247;BME280;6186;52.022;4.692;2024-02-26T06:28:14;100327.22;;;6.51;100.00
12247;BME280;6186;52.022;4.692;2024-02-26T06:30:39;100341.16;;;6.53;100.00
12247;BME280;6186;52.022;4.692;2024-02-26T06:33:05;100338.56;;;6.52;100.00
12247;BME280;6186;52.022;4.692;2024-02-26T06:35:30;100348.22;;;6.48;100.00
12247;BME280;6186;52.022;4.692;2024-02-26T06:37:55;100344.69;;;6.49;100.00
12247;BME280;6186;52.022;4.692;2024-02-26T06:40:20;100325.75;;;6.37;100.00
12247;BME280;6186;52.022;4.692;2024-02-26T06:42:46;100345.63;;;6.47;100.00
12247;BME280;6186;52.022;4.692;2024-02-26T06:45:11;100357.75;;;6.51;100.00
12247;BME280;6186;52.022;4.692;2024-02-26T06:47:36;100363.88;;;6.50;100.00
12247;BME280;6186;52.022;4.692;2024-02-26T06:50:02;100365.59;;;6.51;100.00
12247;BME280;6186;52.022;4.692;2024-02-26T06:52:27;100364.72;;;6.50;100.00
12247;BME280;6186;52.022;4.692;2024-02-26T06:54:52;100369.09;;;6.50;100.00
12247;BME280;6186;52.022;4.692;2024-02-26T06:57:19;100375.22;;;6.49;100.00
12247;BME280;6186;52.022;4.692;2024-02-26T06:59:44;100377.81;;;6.50;100.00
12247;BME280;6186;52.022;4.692;2024-02-26T07:02:10;100374.34;;;6.48;100.00
12247;BME280;6186;52.022;4.692;2024-02-26T07:04:35;100377.84;;;6.49;100.00
12247;BME280;6186;52.022;4.692;2024-02-26T07:07:00;100390.91;;;6.49;100.00
12247;BME280;6186;52.022;4.692;2024-02-26T07:09:25;100394.41;;;6.48;100.00
12247;BME280;6186;52.022;4.692;2024-02-26T07:11:50;100393.56;;;6.46;100.00
12247;BME280;6186;52.022;4.692;2024-02-26T07:14:16;100418.81;;;6.47;100.00
12247;BME280;6186;52.022;4.692;2024-02-26T07:16:41;100403.97;;;6.47;100.00
12247;BME280;6186;52.022;4.692;2024-02-26T07:19:06;100417.91;;;6.48;100.00
12247;BME280;6186;52.022;4.692;2024-02-26T07:21:31;100405.75;;;6.47;100.00
12247;BME280;6186;52.022;4.692;2024-02-26T07:23:57;100418.81;;;6.47;100.00
12247;BME280;6186;52.022;4.692;2024-02-26T07:26:22;100415.31;;;6.48;100.00
12247;BME280;6186;52.022;4.692;2024-02-26T07:28:47;100420.59;;;6.45;100.00
12247;BME280;6186;52.022;4.692;2024-02-26T07:31:12;100424.06;;;6.44;100.00
12247;BME280;6186;52.022;4.692;2024-02-26T07:33:38;100416.28;;;6.42;100.00
12247;BME280;6186;52.022;4.692;2024-02-26T07:36:03;100431.09;;;6.43;100.00
12247;BME280;6186;52.022;4.692;2024-02-26T07:38:29;100438.06;;;6.43;100.00
12247;BME280;6186;52.022;4.692;2024-02-26T07:40:54;100420.63;;;6.42;100.00
12247;BME280;6186;52.022;4.692;2024-02-26T07:43:19;100449.38;;;6.42;100.00
12247;BME280;6186;52.022;4.692;2024-02-26T07:45:44;100438.09;;;6.41;100.00
12247;BME280;6186;52.022;4.692;2024-02-26T07:48:10;100440.72;;;6.38;100.00
12247;BME280;6186;52.022;4.692;2024-02-26T07:50:35;100453.78;;;6.38;100.00
12247;BME280;6186;52.022;4.692;2024-02-26T07:53:00;100453.88;;;6.34;100.00
12247;BME280;6186;52.022;4.692;2024-02-26T07:55:25;100463.38;;;6.38;100.00
12247;BME280;6186;52.022;4.692;2024-02-26T07:57:50;100459.88;;;6.39;100.00
12247;BME280;6186;52.022;4.692;2024-02-26T08:00:16;100472.97;;;6.39;100.00
12247;BME280;6186;52.022;4.692;2024-02-26T08:02:41;100472.97;;;6.39;100.00
12247;BME280;6186;52.022;4.692;2024-02-26T08:05:07;100482.50;;;6.40;100.00
12247;BME280;6186;52.022;4.692;2024-02-26T08:07:32;100485.13;;;6.40;100.00
12247;BME280;6186;52.022;4.692;2024-02-26T08:09:57;100489.50;;;6.41;100.00
12247;BME280;6186;52.022;4.692;2024-02-26T08:12:22;100489.47;;;6.42;100.00
12247;BME280;6186;52.022;4.692;2024-02-26T08:14:48;100477.38;;;6.35;100.00
12247;BME280;6186;52.022;4.692;2024-02-26T08:17:13;100483.44;;;6.36;100.00
12247;BME280;6186;52.022;4.692;2024-02-26T08:19:38;100495.59;;;6.40;100.00
12247;BME280;6186;52.022;4.692;2024-02-26T08:22:03;100497.34;;;6.39;100.00
12247;BME280;6186;52.022;4.692;2024-02-26T08:24:29;100506.09;;;6.37;100.00
12247;BME280;6186;52.022;4.692;2024-02-26T08:26:54;100508.75;;;6.32;100.00
12247;BME280;6186;52.022;4.692;2024-02-26T08:29:19;100508.72;;;6.35;100.00
12247;BME280;6186;52.022;4.692;2024-02-26T08:31:44;100512.19;;;6.36;100.00
12247;BME280;6186;52.022;4.692;2024-02-26T08:34:10;100507.88;;;6.33;100.00
12247;BME280;6186;52.022;4.692;2024-02-26T08:36:35;100517.41;;;6.39;100.00
12247;BME280;6186;52.022;4.692;2024-02-26T08:39:00;100521.75;;;6.38;100.00
12247;BME280;6186;52.022;4.692;2024-02-26T08:41:26;100528.72;;;6.39;100.00
12247;BME280;6186;52.022;4.692;2024-02-26T08:43:51;100535.69;;;6.39;100.00
12247;BME280;6186;52.022;4.692;2024-02-26T08:46:16;100530.47;;;6.39;100.00
12247;BME280;6186;52.022;4.692;2024-02-26T08:48:42;100531.31;;;6.41;100.00
12247;BME280;6186;52.022;4.692;2024-02-26T08:51:08;100535.63;;;6.42;100.00
12247;BME280;6186;52.022;4.692;2024-02-26T08:53:35;100538.25;;;6.43;100.00
12247;BME280;6186;52.022;4.692;2024-02-26T08:56:00;100534.78;;;6.43;100.00
12247;BME280;6186;52.022;4.692;2024-02-26T08:58:29;100543.47;;;6.42;100.00
12247;BME280;6186;52.022;4.692;2024-02-26T09:00:55;100552.16;;;6.44;100.00
12247;BME280;6186;52.022;4.692;2024-02-26T09:03:20;100553.91;;;6.45;100.00
12247;BME280;6186;52.022;4.692;2024-02-26T09:05:45;100553.88;;;6.46;100.00
12247;BME280;6186;52.022;4.692;2024-02-26T09:08:10;100560.00;;;6.47;100.00
12247;BME280;6186;52.022;4.692;2024-02-26T09:10:36;100560.00;;;6.47;100.00
12247;BME280;6186;52.022;4.692;2024-02-26T09:13:01;100563.44;;;6.49;100.00
12247;BME280;6186;52.022;4.692;2024-02-26T09:15:26;100578.25;;;6.50;100.00
12247;BME280;6186;52.022;4.692;2024-02-26T09:17:51;100580.81;;;6.51;100.00
12247;BME280;6186;52.022;4.692;2024-02-26T09:20:16;100579.09;;;6.52;100.00
12247;BME280;6186;52.022;4.692;2024-02-26T09:22:42;100584.31;;;6.52;100.00
12247;BME280;6186;52.022;4.692;2024-02-26T09:25:07;100586.97;;;6.50;100.00
12247;BME280;6186;52.022;4.692;2024-02-26T09:27:32;100590.44;;;6.51;100.00
12247;BME280;6186;52.022;4.692;2024-02-26T09:29:58;100597.38;;;6.52;100.00
12247;BME280;6186;52.022;4.692;2024-02-26T09:32:23;100586.91;;;6.53;100.00
12247;BME280;6186;52.022;4.692;2024-02-26T09:34:48;100602.53;;;6.58;100.00
12247;BME280;6186;52.022;4.692;2024-02-26T09:37:13;100612.94;;;6.61;100.00
12247;BME280;6186;52.022;4.692;2024-02-26T09:39:38;100609.44;;;6.63;100.00
12247;BME280;6186;52.022;4.692;2024-02-26T09:42:04;100615.53;;;6.64;100.00
12247;BME280;6186;52.022;4.692;2024-02-26T09:44:29;100618.97;;;6.68;100.00
12247;BME280;6186;52.022;4.692;2024-02-26T09:46:55;100636.34;;;6.70;100.00
12247;BME280;6186;52.022;4.692;2024-02-26T09:49:22;100636.34;;;6.73;100.00
12247;BME280;6186;52.022;4.692;2024-02-26T09:51:49;100625.84;;;6.75;100.00
12247;BME280;6186;52.022;4.692;2024-02-26T09:54:15;100633.72;;;6.73;100.00
12247;BME280;6186;52.022;4.692;2024-02-26T09:56:41;100638.09;;;6.71;100.00
12247;BME280;6186;52.022;4.692;2024-02-26T09:59:14;100648.53;;;6.76;100.00
12247;BME280;6186;52.022;4.692;2024-02-26T10:01:42;100646.75;;;6.76;100.00
12247;BME280;6186;52.022;4.692;2024-02-26T10:04:08;100658.09;;;6.77;100.00
12247;BME280;6186;52.022;4.692;2024-02-26T10:06:34;100649.41;;;6.73;100.00
12247;BME280;6186;52.022;4.692;2024-02-26T10:09:00;100662.44;;;6.76;100.00
12247;BME280;6186;52.022;4.692;2024-02-26T10:11:25;100658.13;;;6.75;100.00
12247;BME280;6186;52.022;4.692;2024-02-26T10:13:51;100663.34;;;6.75;100.00
12247;BME280;6186;52.022;4.692;2024-02-26T10:16:17;100665.97;;;6.75;100.00
12247;BME280;6186;52.022;4.692;2024-02-26T10:18:48;100678.13;;;6.76;100.00
12247;BME280;6186;52.022;4.692;2024-02-26T10:21:16;100667.69;;;6.75;100.00
12247;BME280;6186;52.022;4.692;2024-02-26T10:23:41;100676.38;;;6.78;100.00
12247;BME280;6186;52.022;4.692;2024-02-26T10:26:07;100665.94;;;6.77;100.00
12247;BME280;6186;52.022;4.692;2024-02-26T10:28:33;100680.78;;;6.75;100.00
12247;BME280;6186;52.022;4.692;2024-02-26T10:30:58;100693.00;;;6.76;100.00
12247;BME280;6186;52.022;4.692;2024-02-26T10:33:24;100681.66;;;6.75;100.00
12247;BME280;6186;52.022;4.692;2024-02-26T10:35:49;100694.75;;;6.74;100.00
12247;BME280;6186;52.022;4.692;2024-02-26T10:38:15;100693.84;;;6.76;100.00
12247;BME280;6186;52.022;4.692;2024-02-26T10:40:40;100693.88;;;6.73;100.00
12247;BME280;6186;52.022;4.692;2024-02-26T10:43:05;100693.81;;;6.79;100.00
12247;BME280;6186;52.022;4.692;2024-02-26T10:45:32;100703.38;;;6.80;100.00
12247;BME280;6186;52.022;4.692;2024-02-26T10:47:57;100697.28;;;6.81;100.00
12247;BME280;6186;52.022;4.692;2024-02-26T10:50:22;100702.47;;;6.84;100.00
12247;BME280;6186;52.022;4.692;2024-02-26T10:52:47;100721.63;;;6.86;100.00
12247;BME280;6186;52.022;4.692;2024-02-26T10:55:16;100712.03;;;6.87;100.00
12247;BME280;6186;52.022;4.692;2024-02-26T10:57:42;100716.34;;;6.89;100.00
12247;BME280;6186;52.022;4.692;2024-02-26T11:00:10;100726.81;;;6.91;100.00
12247;BME280;6186;52.022;4.692;2024-02-26T11:02:40;100727.69;;;6.90;100.00
12247;BME280;6186;52.022;4.692;2024-02-26T11:05:06;100723.38;;;6.84;100.00
12247;BME280;6186;52.022;4.692;2024-02-26T11:07:34;100732.91;;;6.90;100.00
12247;BME280;6186;52.022;4.692;2024-02-26T11:10:00;100737.25;;;6.89;100.00
12247;BME280;6186;52.022;4.692;2024-02-26T11:12:28;100743.38;;;6.90;100.00
12247;BME280;6186;52.022;4.692;2024-02-26T11:14:54;100749.44;;;6.93;100.00
12247;BME280;6186;52.022;4.692;2024-02-26T11:17:22;100759.03;;;6.94;100.00
12247;BME280;6186;52.022;4.692;2024-02-26T11:19:49;100756.31;;;7.00;100.00
12247;BME280;6186;52.022;4.692;2024-02-26T11:22:15;100755.47;;;7.00;100.00
12247;BME280;6186;52.022;4.692;2024-02-26T11:24:40;100761.59;;;6.97;100.00
12247;BME280;6186;52.022;4.692;2024-02-26T11:27:06;100756.41;;;6.94;100.00
12247;BME280;6186;52.022;4.692;2024-02-26T11:29:41;100759.88;;;6.95;100.00
12247;BME280;6186;52.022;4.692;2024-02-26T11:32:08;100766.06;;;6.91;100.00
12247;BME280;6186;52.022;4.692;2024-02-26T11:34:34;100774.78;;;6.88;100.00
12247;BME280;6186;52.022;4.692;2024-02-26T11:37:10;100768.75;;;6.83;100.00
12247;BME280;6186;52.022;4.692;2024-02-26T11:39:35;100776.56;;;6.86;100.00
12247;BME280;6186;52.022;4.692;2024-02-26T11:42:07;100781.78;;;6.86;100.00
12247;BME280;6186;52.022;4.692;2024-02-26T11:44:33;100780.88;;;6.87;100.00
12247;BME280;6186;52.022;4.692;2024-02-26T11:46:58;100789.59;;;6.89;100.00
12247;BME280;6186;52.022;4.692;2024-02-26T11:51:51;100785.28;;;6.85;100.00
12247;BME280;6186;52.022;4.692;2024-02-26T11:54:49;100789.59;;;6.91;100.00
12247;BME280;6186;52.022;4.692;2024-02-26T11:59:49;100793.13;;;6.85;100.00
12247;BME280;6186;52.022;4.692;2024-02-26T12:05:13;100801.75;;;6.93;100.00
12247;BME280;6186;52.022;4.692;2024-02-26T12:07:49;100796.53;;;6.93;100.00
12247;BME280;6186;52.022;4.692;2024-02-26T12:10:25;100801.75;;;6.96;100.00
12247;BME280;6186;52.022;4.692;2024-02-26T12:13:13;100803.47;;;6.97;100.00
12247;BME280;6186;52.022;4.692;2024-02-26T12:15:41;100799.97;;;6.98;100.00
12247;BME280;6186;52.022;4.692;2024-02-26T12:18:07;100805.19;;;7.00;100.00
12247;BME280;6186;52.022;4.692;2024-02-26T12:20:34;100811.22;;;7.05;100.00
12247;BME280;6186;52.022;4.692;2024-02-26T12:22:59;100819.03;;;7.09;100.00
12247;BME280;6186;52.022;4.692;2024-02-26T12:25:27;100825.13;;;7.11;100.00
12247;BME280;6186;52.022;4.692;2024-02-26T12:27:56;100823.34;;;7.13;100.00
12247;BME280;6186;52.022;4.692;2024-02-26T12:30:22;100825.94;;;7.16;100.00
12247;BME280;6186;52.022;4.692;2024-02-26T12:32:49;100818.97;;;7.15;100.00
12247;BME280;6186;52.022;4.692;2024-02-26T12:35:15;100831.13;;;7.19;100.00
12247;BME280;6186;52.022;4.692;2024-02-26T12:37:40;100839.81;;;7.24;100.00
12247;BME280;6186;52.022;4.692;2024-02-26T12:40:08;100831.03;;;7.28;100.00
12247;BME280;6186;52.022;4.692;2024-02-26T12:42:34;100844.97;;;7.30;100.00
12247;BME280;6186;52.022;4.692;2024-02-26T12:45:00;100854.50;;;7.33;100.00
12247;BME280;6186;52.022;4.692;2024-02-26T12:47:25;100857.16;;;7.31;100.00
12247;BME280;6186;52.022;4.692;2024-02-26T12:49:50;100855.38;;;7.33;100.00
12247;BME280;6186;52.022;4.692;2024-02-26T12:52:16;100857.13;;;7.34;100.00
12247;BME280;6186;52.022;4.692;2024-02-26T12:54:42;100857.97;;;7.36;100.00
12247;BME280;6186;52.022;4.692;2024-02-26T12:57:08;100862.28;;;7.40;100.00
12247;BME280;6186;52.022;4.692;2024-02-26T12:59:35;100831.88;;;7.30;100.00